Hardy, VA (24101)

6:36 AM EDT on September 05, 2015 (GMT -0400)
Idlewood Shores | | Change Station
CLOSE
Current Station
Personal Weather Station
Location: Hardy, VA
Elevation: 945 ft
Nearby Weather Stations

Elev 945 ft 37.16 °N, 79.72 °W | Updated 5 minutes ago

Mostly Cloudy
Mostly Cloudy
67.1 °F
Feels Like 67.1 °F
N
0.0
Wind Variable Wind from WSW

Today
High -- | Low -- °F
--% Chance of Precip.
Yesterday
High -- | Low -- °F
Precip. -- in
6:52 AM 7:42 PM
Waning Gibbous, 50% visible
Pressure 30.19 in
Visibility 5.0 miles
Clouds Mostly Cloudy 2100 ft
Overcast 3000 ft
Dew Point 67 °F
Humidity 99%
Rainfall 0.00 in
Snow Depth Not available.
UV 0 out of 12
Pollen 8.80 out of 12
Air Quality Not available.
Flu Activity Not available.
METAR KROA 050954Z 00000KT 5SM BR BKN021 OVC030 20/19 A3021 RMK AO2 SLP221 T02000194 $
Pressure 30.19 in
Visibility 5.0 miles
Clouds Mostly Cloudy 2100 ft
Overcast 3000 ft
Dew Point 67 °F
Humidity 99%
Rainfall 0.00 in
Snow Depth Not available.
UV 0 out of 12
Pollen 8.80 out of 12
Air Quality Not available.
Flu Activity Not available.
METAR KROA 050954Z 00000KT 5SM BR BKN021 OVC030 20/19 A3021 RMK AO2 SLP221 T02000194 $

10-Day Weather Forecast

×

Almanac

Astronomy

Sep. 05, 2015 Rise Set
Actual Time
Civil Twilight
Nautical Twilight
Astronomical Twilight
Moon
Length of Visible Light
Length of Day
Tomorrow will be .
, % of the Moon is Illuminated

Today's Extremes

State Highs State Lows

Community

WunderPhotos

Upload Photos

1,852,440 photos uploaded!

WunderBlogs® & News

Nearby

Air Quality

  Air Quality AQ Index Pollutant
Not available.

Snow Depth

Station Depth Elevation

Earthquake Activity

City Distance Mag. Time & Date
Minimum magnitude displayed is 2.5.

Coastal Water Temperatures

Place Temperature

Stations

Nearby Weather Stations

Station Location Temp. Windchill Dew Point Humidity Wind Precip. Elev Updated Type